createdAt,value
2022-10-14T00:01:27.002Z,4.47
2022-10-14T00:03:53.577Z,3.53
2022-10-14T00:06:20.027Z,3.65
2022-10-14T00:08:46.440Z,3.20
2022-10-14T00:11:12.879Z,2.30
2022-10-14T00:13:39.294Z,3.38
2022-10-14T00:16:05.747Z,4.10
2022-10-14T00:18:32.209Z,4.03
2022-10-14T00:20:58.639Z,2.65
2022-10-14T00:23:25.061Z,3.42
2022-10-14T00:25:51.492Z,3.10
2022-10-14T00:28:17.952Z,2.78
2022-10-14T00:30:44.413Z,2.75
2022-10-14T00:33:10.867Z,2.50
2022-10-14T00:35:37.280Z,2.30
2022-10-14T00:38:03.718Z,1.98
2022-10-14T00:40:30.137Z,2.40
2022-10-14T00:42:56.585Z,2.70
2022-10-14T00:45:23.005Z,2.65
2022-10-14T00:47:49.441Z,2.95
2022-10-14T00:50:15.859Z,2.70
2022-10-14T00:52:42.289Z,2.90
2022-10-14T00:55:08.709Z,1.95
2022-10-14T00:57:35.141Z,2.30
2022-10-14T01:00:01.582Z,3.00
2022-10-14T01:02:28.008Z,3.00
2022-10-14T01:04:54.430Z,2.50
2022-10-14T01:07:21.092Z,3.50
2022-10-14T01:09:47.700Z,4.03
2022-10-14T01:12:28.671Z,2.70
2022-10-14T01:14:56.093Z,2.38
2022-10-14T01:17:22.531Z,2.17
2022-10-14T01:19:48.944Z,2.30
2022-10-14T01:22:18.726Z,1.75
2022-10-14T01:24:47.861Z,1.75
2022-10-14T01:27:14.282Z,2.03
2022-10-14T01:29:40.730Z,2.17
2022-10-14T01:32:07.166Z,2.17
2022-10-14T01:34:33.619Z,2.83
2022-10-14T01:37:00.052Z,2.38
2022-10-14T01:39:26.485Z,2.58
2022-10-14T01:41:52.911Z,2.17
2022-10-14T01:44:19.345Z,1.80
2022-10-14T01:46:45.778Z,2.08
2022-10-14T01:49:12.207Z,2.10
2022-10-14T01:51:38.641Z,2.13
2022-10-14T01:54:05.051Z,1.95
2022-10-14T01:56:31.488Z,1.90
2022-10-14T01:58:57.925Z,1.92
2022-10-14T02:01:24.396Z,1.73
2022-10-14T02:03:50.841Z,3.00
2022-10-14T02:06:17.290Z,1.92
2022-10-14T02:08:43.721Z,2.17
2022-10-14T02:11:10.185Z,2.30
2022-10-14T02:13:36.596Z,2.05
2022-10-14T02:16:03.029Z,2.35
2022-10-14T02:18:29.445Z,1.92
2022-10-14T02:20:55.866Z,2.08
2022-10-14T02:23:22.298Z,1.90
2022-10-14T02:25:48.719Z,2.10
2022-10-14T02:28:15.201Z,2.08
2022-10-14T02:30:41.640Z,2.10
2022-10-14T02:33:08.498Z,2.22
2022-10-14T02:35:34.912Z,2.80
2022-10-14T02:38:01.348Z,2.47
2022-10-14T02:40:27.772Z,2.38
2022-10-14T02:42:54.205Z,1.98
2022-10-14T02:45:20.622Z,2.78
2022-10-14T02:47:47.068Z,2.55
2022-10-14T02:50:13.496Z,1.83
2022-10-14T02:52:39.936Z,2.08
2022-10-14T02:55:06.353Z,1.73
2022-10-14T02:57:32.802Z,1.60
2022-10-14T02:59:59.241Z,1.90
2022-10-14T03:02:25.669Z,1.60
2022-10-14T03:04:52.086Z,1.80
2022-10-14T03:07:18.513Z,1.40
2022-10-14T03:09:44.919Z,1.48
2022-10-14T03:12:11.343Z,1.73
2022-10-14T03:14:37.755Z,1.42
2022-10-14T03:17:04.202Z,1.33
2022-10-14T03:19:30.640Z,1.67
2022-10-14T03:21:57.111Z,2.35
2022-10-14T03:24:23.520Z,2.58
2022-10-14T03:26:49.996Z,2.30
2022-10-14T03:29:16.419Z,2.53
2022-10-14T03:31:42.855Z,2.10
2022-10-14T03:34:09.278Z,2.08
2022-10-14T03:36:35.714Z,2.53
2022-10-14T03:39:02.138Z,2.47
2022-10-14T03:41:28.569Z,3.20
2022-10-14T03:43:55.022Z,3.08
2022-10-14T03:46:21.443Z,3.10
2022-10-14T03:48:47.872Z,3.20
2022-10-14T03:51:14.318Z,3.60
2022-10-14T03:53:40.774Z,3.42
2022-10-14T03:56:07.214Z,3.78
2022-10-14T03:58:33.653Z,4.88
2022-10-14T04:01:00.086Z,4.15
2022-10-14T04:03:26.550Z,3.58
2022-10-14T04:05:52.965Z,4.95
2022-10-14T04:08:19.388Z,4.43
2022-10-14T04:10:45.795Z,5.90
2022-10-14T04:13:12.244Z,5.50
2022-10-14T04:15:38.674Z,5.28
2022-10-14T04:18:05.296Z,5.05
2022-10-14T04:20:31.765Z,4.22
2022-10-14T04:22:58.188Z,4.72
2022-10-14T04:25:24.622Z,4.07
2022-10-14T04:27:51.073Z,4.07
2022-10-14T04:30:17.493Z,5.05
2022-10-14T04:32:43.920Z,5.85
2022-10-14T04:35:10.362Z,5.82
2022-10-14T04:37:37.821Z,6.45
2022-10-14T04:40:04.257Z,6.20
2022-10-14T04:42:30.688Z,5.90
2022-10-14T04:44:57.119Z,5.63
2022-10-14T04:47:23.544Z,4.07
2022-10-14T04:49:49.998Z,4.72
2022-10-14T04:52:16.436Z,4.45
2022-10-14T04:54:42.868Z,4.65
2022-10-14T04:57:09.289Z,5.75
2022-10-14T04:59:35.717Z,7.25
2022-10-14T05:02:02.178Z,8.18
2022-10-14T05:04:28.678Z,8.45
2022-10-14T05:06:55.092Z,7.75
2022-10-14T05:09:21.535Z,6.90
2022-10-14T05:11:47.975Z,5.13
2022-10-14T05:14:14.412Z,4.90
2022-10-14T05:16:40.844Z,5.53
2022-10-14T05:19:07.297Z,5.32
2022-10-14T05:21:33.737Z,4.60
2022-10-14T05:24:00.340Z,5.05
2022-10-14T05:26:26.810Z,4.32
2022-10-14T05:28:53.262Z,5.60
2022-10-14T05:31:19.703Z,6.45
2022-10-14T05:33:46.121Z,8.40
2022-10-14T05:36:12.574Z,8.77
2022-10-14T05:38:39.008Z,10.70
2022-10-14T05:41:05.434Z,10.07
2022-10-14T05:43:32.822Z,12.32
2022-10-14T05:45:59.547Z,11.32
2022-10-14T05:48:25.975Z,13.45
2022-10-14T05:50:52.460Z,13.18
2022-10-14T05:53:18.880Z,13.02
2022-10-14T05:55:45.322Z,11.85
2022-10-14T05:58:11.760Z,8.93
2022-10-14T06:00:38.184Z,8.55
2022-10-14T06:03:04.636Z,9.02
2022-10-14T06:05:31.118Z,11.63
2022-10-14T06:07:57.545Z,11.52
2022-10-14T06:10:23.975Z,10.57
2022-10-14T06:12:50.391Z,10.00
2022-10-14T06:15:16.817Z,9.57
2022-10-14T06:17:43.256Z,12.40
2022-10-14T06:20:09.692Z,12.23
2022-10-14T06:22:36.122Z,9.68
2022-10-14T06:25:04.527Z,8.98
2022-10-14T06:27:31.161Z,10.50
2022-10-14T06:29:57.598Z,8.45
2022-10-14T06:32:24.482Z,7.43
2022-10-14T06:34:51.145Z,5.32
2022-10-14T06:37:17.560Z,5.75
2022-10-14T06:39:44.056Z,6.82
2022-10-14T06:42:13.085Z,6.30
2022-10-14T06:44:39.781Z,5.63
2022-10-14T06:47:06.208Z,6.78
2022-10-14T06:49:32.626Z,6.00
2022-10-14T06:51:59.067Z,4.18
2022-10-14T06:54:25.480Z,4.50
2022-10-14T06:56:51.928Z,5.65
2022-10-14T06:59:18.354Z,9.48
2022-10-14T07:01:44.835Z,8.45
2022-10-14T07:04:11.354Z,8.43
2022-10-14T07:06:37.818Z,11.77
2022-10-14T07:09:04.239Z,8.45
2022-10-14T07:11:30.681Z,7.28
2022-10-14T07:13:57.099Z,7.25
2022-10-14T07:16:23.548Z,6.10
2022-10-14T07:18:49.968Z,6.20
2022-10-14T07:21:16.418Z,8.88
2022-10-14T07:23:42.841Z,6.18
2022-10-14T07:26:09.317Z,5.70
2022-10-14T07:28:35.820Z,5.80
2022-10-14T07:31:02.299Z,5.53
2022-10-14T07:33:28.750Z,5.90
2022-10-14T07:35:55.210Z,4.68
2022-10-14T07:38:21.652Z,5.07
2022-10-14T07:40:48.080Z,5.40
2022-10-14T07:43:14.498Z,5.55
2022-10-14T07:45:40.953Z,6.20
2022-10-14T07:48:07.377Z,5.07
2022-10-14T07:50:33.826Z,4.65
2022-10-14T07:53:01.345Z,4.72
2022-10-14T07:55:28.066Z,4.72
2022-10-14T07:57:54.484Z,4.10
2022-10-14T08:00:20.921Z,4.95
2022-10-14T08:02:47.355Z,4.47
2022-10-14T08:05:36.720Z,4.65
2022-10-14T08:08:00.217Z,5.20
2022-10-14T08:10:26.643Z,6.70
2022-10-14T08:12:53.093Z,6.75
2022-10-14T08:15:19.509Z,5.85
2022-10-14T08:17:45.947Z,6.80
2022-10-14T08:20:12.451Z,5.43
2022-10-14T08:22:38.948Z,5.50
2022-10-14T08:25:05.413Z,5.82
2022-10-14T08:27:32.002Z,7.22
2022-10-14T08:29:58.481Z,8.68
2022-10-14T08:32:25.166Z,8.32
2022-10-14T08:34:51.790Z,8.50
2022-10-14T08:37:18.230Z,8.30
2022-10-14T08:39:44.649Z,8.55
2022-10-14T08:42:11.103Z,8.25
2022-10-14T08:44:37.530Z,7.95
2022-10-14T08:47:03.971Z,7.32
2022-10-14T08:49:30.388Z,6.88
2022-10-14T08:51:56.813Z,7.68
2022-10-14T08:54:23.252Z,6.85
2022-10-14T08:56:49.755Z,8.10
2022-10-14T08:59:16.238Z,6.57
2022-10-14T09:01:42.724Z,5.47
2022-10-14T09:04:09.218Z,6.70
2022-10-14T09:06:35.715Z,6.28
2022-10-14T09:09:02.133Z,6.40
2022-10-14T09:11:32.034Z,5.72
2022-10-14T09:14:00.736Z,6.32
2022-10-14T09:16:27.160Z,5.82
2022-10-14T09:18:54.830Z,5.50
2022-10-14T09:21:33.789Z,5.85
2022-10-14T09:24:07.192Z,4.60
2022-10-14T09:26:33.626Z,3.78
2022-10-14T09:29:00.131Z,3.80
2022-10-14T09:31:26.689Z,3.58
2022-10-14T09:33:53.156Z,3.67
2022-10-14T09:36:19.590Z,3.45
2022-10-14T09:38:46.027Z,3.20
2022-10-14T09:41:12.455Z,3.03
2022-10-14T09:46:10.213Z,2.35
2022-10-14T09:48:36.645Z,2.30
2022-10-14T09:51:03.103Z,2.30
2022-10-14T09:53:29.555Z,2.33
2022-10-14T09:55:55.969Z,2.22
2022-10-14T09:58:22.405Z,2.50
2022-10-14T10:00:48.833Z,3.00
2022-10-14T10:03:17.198Z,2.85
2022-10-14T10:05:43.756Z,2.38
2022-10-14T10:08:10.176Z,2.80
2022-10-14T10:10:36.612Z,2.20
2022-10-14T10:13:03.089Z,2.50
2022-10-14T10:15:29.612Z,2.50
2022-10-14T10:17:56.040Z,2.40
2022-10-14T10:20:22.480Z,2.00
2022-10-14T10:22:49.116Z,2.30
2022-10-14T10:25:15.620Z,2.45
2022-10-14T10:27:42.065Z,2.95
2022-10-14T10:30:08.488Z,2.63
2022-10-14T10:32:34.928Z,2.50
2022-10-14T10:35:01.361Z,2.05
2022-10-14T10:37:27.797Z,2.47
2022-10-14T10:39:54.222Z,2.63
2022-10-14T10:42:20.881Z,2.67
2022-10-14T10:44:47.584Z,2.63
2022-10-14T10:47:14.017Z,2.30
2022-10-14T10:49:40.452Z,2.00
2022-10-14T10:52:06.873Z,2.13
2022-10-14T10:54:33.290Z,1.95
2022-10-14T10:56:59.716Z,1.90
2022-10-14T10:59:26.153Z,2.10
2022-10-14T11:01:52.670Z,2.00
2022-10-14T11:04:19.146Z,2.08
2022-10-14T11:06:45.588Z,1.88
2022-10-14T11:09:12.012Z,2.10
2022-10-14T11:11:38.436Z,2.05
2022-10-14T11:14:04.874Z,2.15
2022-10-14T11:16:31.296Z,1.92
2022-10-14T11:18:57.736Z,2.03
2022-10-14T11:21:24.174Z,1.92
2022-10-14T11:23:50.628Z,2.17
2022-10-14T11:26:17.061Z,1.90
2022-10-14T11:28:44.069Z,1.67
2022-10-14T11:31:13.371Z,1.80
2022-10-14T11:33:40.065Z,1.98
2022-10-14T11:36:06.544Z,1.70
2022-10-14T11:38:32.959Z,1.50
2022-10-14T11:40:59.391Z,2.17
2022-10-14T11:43:25.796Z,1.60
2022-10-14T11:45:52.250Z,1.70
2022-10-14T11:48:18.669Z,1.70
2022-10-14T11:50:45.100Z,1.80
2022-10-14T11:53:11.522Z,1.50
2022-10-14T11:55:37.955Z,1.80
2022-10-14T11:58:04.381Z,1.60
2022-10-14T12:00:30.807Z,1.50
2022-10-14T12:02:57.311Z,1.60
2022-10-14T12:05:23.821Z,1.80
2022-10-14T12:07:50.269Z,1.48
2022-10-14T12:10:16.694Z,1.58
2022-10-14T12:12:43.142Z,2.05
2022-10-14T12:15:09.556Z,1.58
2022-10-14T12:17:36.002Z,1.95
2022-10-14T12:20:02.423Z,1.17
2022-10-14T12:22:28.864Z,1.58
2022-10-14T12:24:55.287Z,1.67
2022-10-14T12:27:21.794Z,1.30
2022-10-14T12:29:48.284Z,1.10
2022-10-14T12:32:14.736Z,1.30
2022-10-14T12:34:41.158Z,1.38
2022-10-14T12:37:07.593Z,1.88
2022-10-14T12:39:34.012Z,1.73
2022-10-14T12:42:00.445Z,1.60
2022-10-14T12:44:26.881Z,1.92
2022-10-14T12:46:53.306Z,1.83
2022-10-14T12:49:19.765Z,1.98
2022-10-14T12:51:46.210Z,1.80
2022-10-14T12:54:12.647Z,1.50
2022-10-14T12:56:39.059Z,1.67
2022-10-14T12:59:05.571Z,1.60
2022-10-14T13:01:35.297Z,1.95
2022-10-14T13:06:34.214Z,1.60
2022-10-14T13:09:00.674Z,1.80
2022-10-14T13:11:27.093Z,2.00
2022-10-14T13:13:53.609Z,2.13
2022-10-14T13:16:20.049Z,1.73
2022-10-14T13:18:46.485Z,1.65
2022-10-14T13:21:12.909Z,1.77
2022-10-14T13:23:39.344Z,1.70
2022-10-14T13:26:05.759Z,1.40
2022-10-14T13:28:32.253Z,1.48
2022-10-14T13:30:58.869Z,1.45
2022-10-14T13:33:25.340Z,1.10
2022-10-14T13:35:51.772Z,1.02
2022-10-14T13:38:18.210Z,1.20
2022-10-14T13:40:44.644Z,1.00
2022-10-14T13:43:11.066Z,1.30
2022-10-14T13:45:41.131Z,1.23
2022-10-14T13:48:08.648Z,1.57
2022-10-14T13:50:35.078Z,1.40
2022-10-14T13:53:01.515Z,1.38
2022-10-14T13:55:27.973Z,1.42
2022-10-14T13:58:12.142Z,1.60
2022-10-14T14:00:41.543Z,1.40
2022-10-14T14:03:08.597Z,1.10
2022-10-14T14:05:35.076Z,1.05
2022-10-14T14:08:34.869Z,1.10
2022-10-14T14:11:14.440Z,1.23
2022-10-14T14:13:34.714Z,1.10
2022-10-14T14:16:01.173Z,1.00
2022-10-14T14:18:33.948Z,1.38
2022-10-14T14:23:36.194Z,1.23
2022-10-14T14:26:18.543Z,0.80
2022-10-14T14:28:45.604Z,0.70
2022-10-14T14:31:12.090Z,0.77
2022-10-14T14:33:38.537Z,0.90
2022-10-14T14:36:04.970Z,1.08
2022-10-14T14:38:31.418Z,1.10
2022-10-14T14:40:57.837Z,0.98
2022-10-14T14:43:24.273Z,0.90
2022-10-14T14:45:50.685Z,1.27
2022-10-14T14:48:17.130Z,1.20
2022-10-14T14:50:43.549Z,0.85
2022-10-14T14:53:10.002Z,0.98
2022-10-14T14:55:36.427Z,1.00
2022-10-14T14:58:02.873Z,0.80
2022-10-14T15:00:29.293Z,0.90
2022-10-14T15:02:55.728Z,0.70
2022-10-14T15:05:22.148Z,0.75
2022-10-14T15:07:48.580Z,0.90
2022-10-14T15:10:14.997Z,1.00
2022-10-14T15:12:41.450Z,1.13
2022-10-14T15:15:07.870Z,1.05
2022-10-14T15:17:34.326Z,0.98
2022-10-14T15:20:00.854Z,1.05
2022-10-14T15:22:29.854Z,0.82
2022-10-14T15:24:57.100Z,0.90
2022-10-14T15:27:23.517Z,1.10
2022-10-14T15:29:49.949Z,1.13
2022-10-14T15:32:16.371Z,1.20
2022-10-14T15:34:42.808Z,1.00
2022-10-14T15:37:09.247Z,0.93
2022-10-14T15:39:35.674Z,1.00
2022-10-14T15:42:02.107Z,0.77
2022-10-14T15:44:28.784Z,1.15
2022-10-14T15:46:55.222Z,0.90
2022-10-14T15:49:21.644Z,0.80
2022-10-14T15:51:48.070Z,1.23
2022-10-14T15:54:14.526Z,1.10
2022-10-14T15:56:40.944Z,0.85
2022-10-14T15:59:07.368Z,0.90
2022-10-14T16:01:33.844Z,1.00
2022-10-14T16:04:00.354Z,0.82
2022-10-14T16:06:26.802Z,0.65
2022-10-14T16:08:53.231Z,0.80
2022-10-14T16:11:19.653Z,0.70
2022-10-14T16:13:46.095Z,1.23
2022-10-14T16:16:12.521Z,1.40
2022-10-14T16:18:38.944Z,1.10
2022-10-14T16:21:05.381Z,1.00
2022-10-14T16:23:33.310Z,0.80
2022-10-14T16:25:59.927Z,0.65
2022-10-14T16:28:26.394Z,0.80
2022-10-14T16:30:52.871Z,0.30
2022-10-14T16:33:19.388Z,0.40
2022-10-14T16:35:45.881Z,0.52
2022-10-14T16:38:12.318Z,0.50
2022-10-14T16:40:38.748Z,0.55
2022-10-14T16:43:05.178Z,0.60
2022-10-14T16:45:31.613Z,0.80
2022-10-14T16:47:58.026Z,0.70
2022-10-14T16:50:24.465Z,0.68
2022-10-14T16:52:50.884Z,0.30
2022-10-14T16:55:17.335Z,0.60
2022-10-14T16:57:43.754Z,0.40
2022-10-14T17:00:10.238Z,0.73
2022-10-14T17:02:36.733Z,0.57
2022-10-14T17:05:03.173Z,0.80
2022-10-14T17:07:29.600Z,0.60
2022-10-14T17:09:56.048Z,0.70
2022-10-14T17:12:22.684Z,0.60
2022-10-14T17:14:49.309Z,0.65
2022-10-14T17:17:15.724Z,0.80
2022-10-14T17:19:42.170Z,0.93
2022-10-14T17:22:08.599Z,0.85
2022-10-14T17:24:35.056Z,0.88
2022-10-14T17:27:01.517Z,0.70
2022-10-14T17:29:27.965Z,0.60
2022-10-14T17:31:54.381Z,0.70
2022-10-14T17:34:20.796Z,1.00
2022-10-14T17:36:47.279Z,0.90
2022-10-14T17:39:17.679Z,0.98
2022-10-14T17:41:49.409Z,0.80
2022-10-14T17:44:15.833Z,0.73
2022-10-14T17:46:42.272Z,0.80
2022-10-14T17:49:08.711Z,1.00
2022-10-14T17:51:35.158Z,0.80
2022-10-14T17:54:01.606Z,0.90
2022-10-14T17:56:28.039Z,0.88
2022-10-14T17:58:54.468Z,0.90
2022-10-14T18:01:31.675Z,0.60
2022-10-14T18:04:04.007Z,0.98
2022-10-14T18:06:30.449Z,0.90
2022-10-14T18:08:56.896Z,1.13
2022-10-14T18:11:23.345Z,1.08
2022-10-14T18:13:49.774Z,1.35
2022-10-14T18:16:16.212Z,0.77
2022-10-14T18:18:42.648Z,1.08
2022-10-14T18:21:09.102Z,1.00
2022-10-14T18:23:35.533Z,1.20
2022-10-14T18:26:01.982Z,1.20
2022-10-14T18:28:28.447Z,0.90
2022-10-14T18:30:54.912Z,0.85
2022-10-14T18:33:21.354Z,1.17
2022-10-14T18:35:48.709Z,1.50
2022-10-14T18:38:15.270Z,1.00
2022-10-14T18:40:41.711Z,1.23
2022-10-14T18:43:08.152Z,1.30
2022-10-14T18:45:34.628Z,1.40
2022-10-14T18:48:01.056Z,1.35
2022-10-14T18:50:27.501Z,1.30
2022-10-14T18:52:53.919Z,1.60
2022-10-14T18:55:20.365Z,1.52
2022-10-14T18:57:46.788Z,1.60
2022-10-14T19:00:14.337Z,1.90
2022-10-14T19:02:40.931Z,1.80
2022-10-14T19:05:07.361Z,1.83
2022-10-14T19:07:33.797Z,1.58
2022-10-14T19:10:00.219Z,1.95
2022-10-14T19:12:26.664Z,1.65
2022-10-14T19:14:53.120Z,1.90
2022-10-14T19:17:19.557Z,2.00
2022-10-14T19:19:46.018Z,1.80
2022-10-14T19:22:12.461Z,1.80
2022-10-14T19:24:38.887Z,1.80
2022-10-14T19:27:05.337Z,1.70
2022-10-14T19:29:31.769Z,1.30
2022-10-14T19:31:58.221Z,1.83
2022-10-14T19:34:27.075Z,1.60
2022-10-14T19:36:53.836Z,1.75
2022-10-14T19:39:20.261Z,1.67
2022-10-14T19:41:46.773Z,1.83
2022-10-14T19:44:13.234Z,1.52
2022-10-14T19:46:39.670Z,1.55
2022-10-14T19:49:06.127Z,1.65
2022-10-14T19:51:32.574Z,1.90
2022-10-14T19:53:59.004Z,1.77
2022-10-14T19:56:25.459Z,1.88
2022-10-14T19:58:51.905Z,1.80
2022-10-14T20:01:18.407Z,1.92
2022-10-14T20:03:44.858Z,2.15
2022-10-14T20:06:11.299Z,1.70
2022-10-14T20:08:37.724Z,1.75
2022-10-14T20:11:04.171Z,1.70
2022-10-14T20:13:30.597Z,1.85
2022-10-14T20:15:57.024Z,1.73
2022-10-14T20:18:23.462Z,2.10
2022-10-14T20:20:49.884Z,2.40
2022-10-14T20:23:16.319Z,2.05
2022-10-14T20:25:42.757Z,2.20
2022-10-14T20:28:09.199Z,2.00
2022-10-14T20:30:35.642Z,2.17
2022-10-14T20:33:02.077Z,2.42
2022-10-14T20:37:59.833Z,1.90
2022-10-14T20:40:26.266Z,1.80
2022-10-14T20:42:52.714Z,1.80
2022-10-14T20:45:19.146Z,1.70
2022-10-14T20:47:47.294Z,1.40
2022-10-14T20:50:15.466Z,1.70
2022-10-14T20:52:41.891Z,1.63
2022-10-14T20:55:08.316Z,2.00
2022-10-14T20:57:34.766Z,2.15
2022-10-14T21:00:01.197Z,1.80
2022-10-14T21:02:27.641Z,2.10
2022-10-14T21:04:54.074Z,1.90
2022-10-14T21:07:20.889Z,1.63
2022-10-14T21:09:47.558Z,1.95
2022-10-14T21:12:14.010Z,1.67
2022-10-14T21:14:40.436Z,2.08
2022-10-14T21:17:06.886Z,1.60
2022-10-14T21:19:33.307Z,1.67
2022-10-14T21:21:59.731Z,1.75
2022-10-14T21:24:26.181Z,1.88
2022-10-14T21:26:52.597Z,2.10
2022-10-14T21:29:19.045Z,1.83
2022-10-14T21:31:45.494Z,1.75
2022-10-14T21:34:11.941Z,1.77
2022-10-14T21:36:38.381Z,1.50
2022-10-14T21:39:04.821Z,1.50
2022-10-14T21:41:31.248Z,1.38
2022-10-14T21:43:59.210Z,1.60
2022-10-14T21:46:26.001Z,1.60
2022-10-14T21:48:52.448Z,1.80
2022-10-14T21:51:18.866Z,1.60
2022-10-14T21:53:45.318Z,1.65
2022-10-14T21:56:11.740Z,1.60
2022-10-14T21:58:38.170Z,1.40
2022-10-14T22:01:04.692Z,1.92
2022-10-14T22:03:31.170Z,1.60
2022-10-14T22:05:57.633Z,2.22
2022-10-14T22:08:24.099Z,1.40
2022-10-14T22:10:50.528Z,1.55
2022-10-14T22:13:16.983Z,1.70
2022-10-14T22:15:43.431Z,1.65
2022-10-14T22:18:09.860Z,1.40
2022-10-14T22:20:36.313Z,1.83
2022-10-14T22:23:02.734Z,1.80
2022-10-14T22:25:29.188Z,1.40
2022-10-14T22:27:55.623Z,1.88
2022-10-14T22:30:22.054Z,1.90
2022-10-14T22:32:48.505Z,1.85
2022-10-14T22:35:14.953Z,1.40
2022-10-14T22:37:41.394Z,1.38
2022-10-14T22:40:07.824Z,1.27
2022-10-14T22:42:35.947Z,1.20
2022-10-14T22:45:04.373Z,1.25
2022-10-14T22:47:30.814Z,1.35
2022-10-14T22:49:57.240Z,1.45
2022-10-14T22:52:23.849Z,1.50
2022-10-14T22:54:50.459Z,1.40
2022-10-14T22:57:16.893Z,1.40
2022-10-14T22:59:43.329Z,1.42
2022-10-14T23:02:09.758Z,1.50
2022-10-14T23:04:36.214Z,1.75
2022-10-14T23:07:05.973Z,1.75
2022-10-14T23:12:04.896Z,1.95
2022-10-14T23:14:31.345Z,1.90
2022-10-14T23:16:57.773Z,1.52
2022-10-14T23:19:24.221Z,1.65
2022-10-14T23:21:50.658Z,1.40
2022-10-14T23:24:17.089Z,1.65
2022-10-14T23:26:43.500Z,1.88
2022-10-14T23:29:09.939Z,1.40
2022-10-14T23:31:36.368Z,1.48
2022-10-14T23:34:02.792Z,1.30
2022-10-14T23:36:29.207Z,1.23
2022-10-14T23:38:55.650Z,1.42
2022-10-14T23:41:22.114Z,1.65
2022-10-14T23:43:48.603Z,1.25
2022-10-14T23:46:15.022Z,1.45
2022-10-14T23:48:41.462Z,1.30
2022-10-14T23:51:07.893Z,1.55
2022-10-14T23:53:34.336Z,1.70
2022-10-14T23:56:00.765Z,1.33
2022-10-14T23:58:27.201Z,1.52
